sensor_id;sensor_type;location;lat;lon;timestamp;P1;durP1;ratioP1;P2;durP2;ratioP2
40981;SDS011;26708;50.304;19.028;2022-08-19T00:01:37;11.82;;;6.93;;
40981;SDS011;26708;50.304;19.028;2022-08-19T00:04:38;10.38;;;6.60;;
40981;SDS011;26708;50.304;19.028;2022-08-19T00:07:41;10.07;;;6.32;;
40981;SDS011;26708;50.304;19.028;2022-08-19T00:10:43;9.05;;;6.85;;
40981;SDS011;26708;50.304;19.028;2022-08-19T00:13:47;12.82;;;7.07;;
40981;SDS011;26708;50.304;19.028;2022-08-19T00:16:48;13.70;;;6.32;;
40981;SDS011;26708;50.304;19.028;2022-08-19T00:19:51;12.48;;;6.78;;
40981;SDS011;26708;50.304;19.028;2022-08-19T00:22:52;11.45;;;6.13;;
40981;SDS011;26708;50.304;19.028;2022-08-19T00:25:55;13.30;;;6.97;;
40981;SDS011;26708;50.304;19.028;2022-08-19T00:28:56;11.57;;;7.18;;
40981;SDS011;26708;50.304;19.028;2022-08-19T00:31:57;10.57;;;7.05;;
40981;SDS011;26708;50.304;19.028;2022-08-19T00:35:00;16.17;;;7.28;;
40981;SDS011;26708;50.304;19.028;2022-08-19T00:38:01;11.63;;;7.07;;
40981;SDS011;26708;50.304;19.028;2022-08-19T00:41:02;12.70;;;7.57;;
40981;SDS011;26708;50.304;19.028;2022-08-19T00:47:10;10.10;;;6.30;;
40981;SDS011;26708;50.304;19.028;2022-08-19T00:50:13;10.88;;;6.95;;
40981;SDS011;26708;50.304;19.028;2022-08-19T00:53:18;12.20;;;7.38;;
40981;SDS011;26708;50.304;19.028;2022-08-19T00:56:22;10.68;;;7.25;;
40981;SDS011;26708;50.304;19.028;2022-08-19T00:59:23;11.43;;;7.72;;
40981;SDS011;26708;50.304;19.028;2022-08-19T01:02:25;13.43;;;7.18;;
40981;SDS011;26708;50.304;19.028;2022-08-19T01:05:27;15.63;;;8.20;;
40981;SDS011;26708;50.304;19.028;2022-08-19T01:08:30;9.70;;;7.30;;
40981;SDS011;26708;50.304;19.028;2022-08-19T01:11:34;12.63;;;7.82;;
40981;SDS011;26708;50.304;19.028;2022-08-19T01:14:39;16.30;;;8.10;;
40981;SDS011;26708;50.304;19.028;2022-08-19T01:17:40;13.98;;;7.55;;
40981;SDS011;26708;50.304;19.028;2022-08-19T01:20:43;14.05;;;7.68;;
40981;SDS011;26708;50.304;19.028;2022-08-19T01:23:44;11.15;;;8.02;;
40981;SDS011;26708;50.304;19.028;2022-08-19T01:26:45;11.05;;;7.43;;
40981;SDS011;26708;50.304;19.028;2022-08-19T01:29:48;12.27;;;7.82;;
40981;SDS011;26708;50.304;19.028;2022-08-19T01:32:49;11.25;;;8.20;;
40981;SDS011;26708;50.304;19.028;2022-08-19T01:35:51;10.77;;;7.95;;
40981;SDS011;26708;50.304;19.028;2022-08-19T01:38:53;11.38;;;7.78;;
40981;SDS011;26708;50.304;19.028;2022-08-19T01:42:00;11.93;;;7.38;;
40981;SDS011;26708;50.304;19.028;2022-08-19T01:45:03;13.48;;;7.47;;
40981;SDS011;26708;50.304;19.028;2022-08-19T01:48:08;10.52;;;8.32;;
40981;SDS011;26708;50.304;19.028;2022-08-19T01:51:10;11.40;;;7.90;;
40981;SDS011;26708;50.304;19.028;2022-08-19T01:54:12;10.25;;;7.43;;
40981;SDS011;26708;50.304;19.028;2022-08-19T01:57:15;12.25;;;7.60;;
40981;SDS011;26708;50.304;19.028;2022-08-19T02:00:18;13.98;;;8.10;;
40981;SDS011;26708;50.304;19.028;2022-08-19T02:03:22;12.15;;;7.65;;
40981;SDS011;26708;50.304;19.028;2022-08-19T02:06:23;10.40;;;7.72;;
40981;SDS011;26708;50.304;19.028;2022-08-19T02:09:24;15.07;;;8.23;;
40981;SDS011;26708;50.304;19.028;2022-08-19T02:12:25;14.73;;;8.00;;
40981;SDS011;26708;50.304;19.028;2022-08-19T02:15:27;12.27;;;7.93;;
40981;SDS011;26708;50.304;19.028;2022-08-19T02:18:28;10.73;;;7.32;;
40981;SDS011;26708;50.304;19.028;2022-08-19T02:21:29;10.55;;;7.88;;
40981;SDS011;26708;50.304;19.028;2022-08-19T02:24:31;12.48;;;7.70;;
40981;SDS011;26708;50.304;19.028;2022-08-19T02:27:31;11.60;;;7.50;;
40981;SDS011;26708;50.304;19.028;2022-08-19T02:30:34;14.30;;;8.15;;
40981;SDS011;26708;50.304;19.028;2022-08-19T02:33:35;11.98;;;8.18;;
40981;SDS011;26708;50.304;19.028;2022-08-19T02:36:36;10.27;;;8.27;;
40981;SDS011;26708;50.304;19.028;2022-08-19T02:39:37;11.30;;;8.40;;
40981;SDS011;26708;50.304;19.028;2022-08-19T02:42:44;16.10;;;8.35;;
40981;SDS011;26708;50.304;19.028;2022-08-19T02:45:48;15.25;;;8.27;;
40981;SDS011;26708;50.304;19.028;2022-08-19T02:48:51;12.57;;;8.80;;
40981;SDS011;26708;50.304;19.028;2022-08-19T02:51:53;15.95;;;8.32;;
40981;SDS011;26708;50.304;19.028;2022-08-19T02:54:54;13.07;;;8.45;;
40981;SDS011;26708;50.304;19.028;2022-08-19T02:57:57;14.20;;;8.20;;
40981;SDS011;26708;50.304;19.028;2022-08-19T03:00:58;14.93;;;8.43;;
40981;SDS011;26708;50.304;19.028;2022-08-19T03:03:59;12.20;;;8.30;;
40981;SDS011;26708;50.304;19.028;2022-08-19T03:07:02;12.65;;;8.43;;
40981;SDS011;26708;50.304;19.028;2022-08-19T03:10:04;14.23;;;8.60;;
40981;SDS011;26708;50.304;19.028;2022-08-19T03:13:06;13.25;;;8.32;;
40981;SDS011;26708;50.304;19.028;2022-08-19T03:16:06;14.30;;;8.52;;
40981;SDS011;26708;50.304;19.028;2022-08-19T03:19:08;17.23;;;9.48;;
40981;SDS011;26708;50.304;19.028;2022-08-19T03:22:08;12.32;;;8.27;;
40981;SDS011;26708;50.304;19.028;2022-08-19T03:25:09;15.32;;;9.27;;
40981;SDS011;26708;50.304;19.028;2022-08-19T03:28:13;14.50;;;9.18;;
40981;SDS011;26708;50.304;19.028;2022-08-19T03:31:16;13.93;;;9.15;;
40981;SDS011;26708;50.304;19.028;2022-08-19T03:34:21;14.50;;;8.93;;
40981;SDS011;26708;50.304;19.028;2022-08-19T03:37:26;16.80;;;8.82;;
40981;SDS011;26708;50.304;19.028;2022-08-19T03:40:27;15.20;;;9.00;;
40981;SDS011;26708;50.304;19.028;2022-08-19T03:43:30;13.85;;;8.52;;
40981;SDS011;26708;50.304;19.028;2022-08-19T03:46:32;12.35;;;8.20;;
40981;SDS011;26708;50.304;19.028;2022-08-19T03:49:33;13.45;;;8.82;;
40981;SDS011;26708;50.304;19.028;2022-08-19T03:52:35;10.40;;;8.20;;
40981;SDS011;26708;50.304;19.028;2022-08-19T03:55:40;15.60;;;9.00;;
40981;SDS011;26708;50.304;19.028;2022-08-19T03:58:41;19.92;;;9.10;;
40981;SDS011;26708;50.304;19.028;2022-08-19T04:01:42;12.60;;;8.50;;
40981;SDS011;26708;50.304;19.028;2022-08-19T04:04:44;16.25;;;9.10;;
40981;SDS011;26708;50.304;19.028;2022-08-19T04:07:45;12.63;;;8.68;;
40981;SDS011;26708;50.304;19.028;2022-08-19T04:10:49;17.58;;;8.75;;
40981;SDS011;26708;50.304;19.028;2022-08-19T04:13:50;11.43;;;8.98;;
40981;SDS011;26708;50.304;19.028;2022-08-19T04:16:53;14.02;;;8.93;;
40981;SDS011;26708;50.304;19.028;2022-08-19T04:19:56;12.43;;;9.00;;
40981;SDS011;26708;50.304;19.028;2022-08-19T04:22:57;14.02;;;8.70;;
40981;SDS011;26708;50.304;19.028;2022-08-19T04:25:58;16.30;;;8.57;;
40981;SDS011;26708;50.304;19.028;2022-08-19T04:28:59;16.73;;;9.50;;
40981;SDS011;26708;50.304;19.028;2022-08-19T04:32:03;15.60;;;9.50;;
40981;SDS011;26708;50.304;19.028;2022-08-19T04:35:05;16.10;;;9.57;;
40981;SDS011;26708;50.304;19.028;2022-08-19T04:38:07;19.15;;;9.25;;
40981;SDS011;26708;50.304;19.028;2022-08-19T04:41:09;15.30;;;9.20;;
40981;SDS011;26708;50.304;19.028;2022-08-19T04:44:29;15.68;;;9.07;;
40981;SDS011;26708;50.304;19.028;2022-08-19T04:47:33;14.13;;;8.73;;
40981;SDS011;26708;50.304;19.028;2022-08-19T04:50:35;13.23;;;8.23;;
40981;SDS011;26708;50.304;19.028;2022-08-19T04:53:43;13.35;;;9.02;;
40981;SDS011;26708;50.304;19.028;2022-08-19T04:56:44;15.85;;;8.38;;
40981;SDS011;26708;50.304;19.028;2022-08-19T04:59:48;10.70;;;8.20;;
40981;SDS011;26708;50.304;19.028;2022-08-19T05:02:49;14.00;;;8.43;;
40981;SDS011;26708;50.304;19.028;2022-08-19T05:05:50;13.60;;;8.43;;
40981;SDS011;26708;50.304;19.028;2022-08-19T05:08:51;15.95;;;7.95;;
40981;SDS011;26708;50.304;19.028;2022-08-19T05:11:52;15.73;;;9.38;;
40981;SDS011;26708;50.304;19.028;2022-08-19T05:14:54;12.95;;;8.30;;
40981;SDS011;26708;50.304;19.028;2022-08-19T05:17:57;14.18;;;8.50;;
40981;SDS011;26708;50.304;19.028;2022-08-19T05:21:17;15.93;;;8.50;;
40981;SDS011;26708;50.304;19.028;2022-08-19T05:24:37;13.27;;;8.07;;
40981;SDS011;26708;50.304;19.028;2022-08-19T05:27:41;14.15;;;8.32;;
40981;SDS011;26708;50.304;19.028;2022-08-19T05:30:42;16.38;;;9.07;;
40981;SDS011;26708;50.304;19.028;2022-08-19T05:33:47;15.65;;;8.07;;
40981;SDS011;26708;50.304;19.028;2022-08-19T05:36:49;15.88;;;8.45;;
40981;SDS011;26708;50.304;19.028;2022-08-19T05:39:50;13.07;;;8.25;;
40981;SDS011;26708;50.304;19.028;2022-08-19T05:42:54;18.55;;;8.68;;
40981;SDS011;26708;50.304;19.028;2022-08-19T05:45:55;13.65;;;7.55;;
40981;SDS011;26708;50.304;19.028;2022-08-19T05:48:55;15.82;;;8.25;;
40981;SDS011;26708;50.304;19.028;2022-08-19T05:51:56;12.85;;;7.60;;
40981;SDS011;26708;50.304;19.028;2022-08-19T05:55:00;17.30;;;8.40;;
40981;SDS011;26708;50.304;19.028;2022-08-19T05:58:01;17.50;;;8.45;;
40981;SDS011;26708;50.304;19.028;2022-08-19T06:01:03;16.80;;;7.68;;
40981;SDS011;26708;50.304;19.028;2022-08-19T06:04:06;16.33;;;7.83;;
40981;SDS011;26708;50.304;19.028;2022-08-19T06:07:07;18.50;;;8.07;;
40981;SDS011;26708;50.304;19.028;2022-08-19T06:10:09;11.45;;;8.18;;
40981;SDS011;26708;50.304;19.028;2022-08-19T06:13:11;15.60;;;8.63;;
40981;SDS011;26708;50.304;19.028;2022-08-19T06:16:13;14.65;;;8.20;;
40981;SDS011;26708;50.304;19.028;2022-08-19T06:19:21;18.42;;;8.25;;
40981;SDS011;26708;50.304;19.028;2022-08-19T06:22:24;12.52;;;7.50;;
40981;SDS011;26708;50.304;19.028;2022-08-19T06:25:25;15.80;;;8.27;;
40981;SDS011;26708;50.304;19.028;2022-08-19T06:28:38;23.92;;;8.93;;
40981;SDS011;26708;50.304;19.028;2022-08-19T06:31:44;19.52;;;8.10;;
40981;SDS011;26708;50.304;19.028;2022-08-19T06:34:46;14.45;;;8.30;;
40981;SDS011;26708;50.304;19.028;2022-08-19T06:37:47;17.05;;;8.38;;
40981;SDS011;26708;50.304;19.028;2022-08-19T06:40:48;18.73;;;8.05;;
40981;SDS011;26708;50.304;19.028;2022-08-19T06:43:49;21.60;;;8.50;;
40981;SDS011;26708;50.304;19.028;2022-08-19T06:46:51;13.38;;;7.85;;
40981;SDS011;26708;50.304;19.028;2022-08-19T06:49:55;15.82;;;7.93;;
40981;SDS011;26708;50.304;19.028;2022-08-19T06:53:00;17.33;;;8.13;;
40981;SDS011;26708;50.304;19.028;2022-08-19T06:56:03;11.93;;;7.43;;
40981;SDS011;26708;50.304;19.028;2022-08-19T06:59:05;14.85;;;7.65;;
40981;SDS011;26708;50.304;19.028;2022-08-19T07:02:12;19.35;;;7.68;;
40981;SDS011;26708;50.304;19.028;2022-08-19T07:05:15;17.15;;;7.40;;
40981;SDS011;26708;50.304;19.028;2022-08-19T07:11:18;12.60;;;6.90;;
40981;SDS011;26708;50.304;19.028;2022-08-19T07:14:21;18.58;;;7.93;;
40981;SDS011;26708;50.304;19.028;2022-08-19T07:17:25;15.10;;;7.55;;
40981;SDS011;26708;50.304;19.028;2022-08-19T07:20:26;17.42;;;7.15;;
40981;SDS011;26708;50.304;19.028;2022-08-19T07:23:27;11.70;;;7.53;;
40981;SDS011;26708;50.304;19.028;2022-08-19T07:26:29;12.80;;;7.05;;
40981;SDS011;26708;50.304;19.028;2022-08-19T07:29:33;14.20;;;7.82;;
40981;SDS011;26708;50.304;19.028;2022-08-19T07:32:35;13.90;;;7.78;;
40981;SDS011;26708;50.304;19.028;2022-08-19T07:35:37;15.55;;;7.32;;
40981;SDS011;26708;50.304;19.028;2022-08-19T07:38:39;18.60;;;8.20;;
40981;SDS011;26708;50.304;19.028;2022-08-19T07:41:42;23.83;;;7.55;;
40981;SDS011;26708;50.304;19.028;2022-08-19T07:44:43;19.83;;;6.88;;
40981;SDS011;26708;50.304;19.028;2022-08-19T07:47:44;23.08;;;7.68;;
40981;SDS011;26708;50.304;19.028;2022-08-19T07:50:46;18.08;;;7.95;;
40981;SDS011;26708;50.304;19.028;2022-08-19T07:53:48;17.40;;;7.07;;
40981;SDS011;26708;50.304;19.028;2022-08-19T07:56:50;20.85;;;7.30;;
40981;SDS011;26708;50.304;19.028;2022-08-19T07:59:51;17.10;;;7.07;;
40981;SDS011;26708;50.304;19.028;2022-08-19T08:02:52;11.93;;;6.90;;
40981;SDS011;26708;50.304;19.028;2022-08-19T08:05:54;14.35;;;7.13;;
40981;SDS011;26708;50.304;19.028;2022-08-19T08:09:15;16.33;;;7.35;;
40981;SDS011;26708;50.304;19.028;2022-08-19T08:12:24;14.30;;;6.97;;
40981;SDS011;26708;50.304;19.028;2022-08-19T08:15:28;12.75;;;6.65;;
40981;SDS011;26708;50.304;19.028;2022-08-19T08:18:29;16.20;;;6.50;;
40981;SDS011;26708;50.304;19.028;2022-08-19T08:21:30;12.55;;;6.20;;
40981;SDS011;26708;50.304;19.028;2022-08-19T08:24:30;14.27;;;6.32;;
40981;SDS011;26708;50.304;19.028;2022-08-19T08:27:34;14.68;;;6.22;;
40981;SDS011;26708;50.304;19.028;2022-08-19T08:30:37;7.65;;;6.10;;
40981;SDS011;26708;50.304;19.028;2022-08-19T08:33:41;13.35;;;6.28;;
40981;SDS011;26708;50.304;19.028;2022-08-19T08:36:43;11.75;;;6.43;;
40981;SDS011;26708;50.304;19.028;2022-08-19T08:39:46;11.20;;;6.43;;
40981;SDS011;26708;50.304;19.028;2022-08-19T08:42:50;15.05;;;7.05;;
40981;SDS011;26708;50.304;19.028;2022-08-19T08:46:24;16.08;;;6.40;;
40981;SDS011;26708;50.304;19.028;2022-08-19T08:49:29;10.70;;;6.13;;
40981;SDS011;26708;50.304;19.028;2022-08-19T08:52:43;12.52;;;6.25;;
40981;SDS011;26708;50.304;19.028;2022-08-19T08:55:46;11.50;;;5.88;;
40981;SDS011;26708;50.304;19.028;2022-08-19T08:58:52;11.45;;;6.20;;
40981;SDS011;26708;50.304;19.028;2022-08-19T09:02:08;13.15;;;6.32;;
40981;SDS011;26708;50.304;19.028;2022-08-19T09:05:10;16.75;;;6.63;;
40981;SDS011;26708;50.304;19.028;2022-08-19T09:08:14;17.20;;;7.18;;
40981;SDS011;26708;50.304;19.028;2022-08-19T09:15:21;12.80;;;6.97;;
40981;SDS011;26708;50.304;19.028;2022-08-19T09:18:39;155.05;;;30.55;;
40981;SDS011;26708;50.304;19.028;2022-08-19T09:21:41;22.05;;;7.72;;
40981;SDS011;26708;50.304;19.028;2022-08-19T09:24:42;17.10;;;7.55;;
40981;SDS011;26708;50.304;19.028;2022-08-19T09:27:44;11.88;;;6.32;;
40981;SDS011;26708;50.304;19.028;2022-08-19T09:30:45;18.33;;;6.20;;
40981;SDS011;26708;50.304;19.028;2022-08-19T09:33:46;11.13;;;6.18;;
40981;SDS011;26708;50.304;19.028;2022-08-19T09:36:48;16.55;;;5.93;;
40981;SDS011;26708;50.304;19.028;2022-08-19T09:39:53;14.20;;;6.10;;
40981;SDS011;26708;50.304;19.028;2022-08-19T09:42:55;15.18;;;5.28;;
40981;SDS011;26708;50.304;19.028;2022-08-19T09:45:57;8.35;;;5.00;;
40981;SDS011;26708;50.304;19.028;2022-08-19T09:48:59;13.02;;;5.72;;
40981;SDS011;26708;50.304;19.028;2022-08-19T09:52:04;13.73;;;5.53;;
40981;SDS011;26708;50.304;19.028;2022-08-19T09:55:09;11.60;;;5.27;;
40981;SDS011;26708;50.304;19.028;2022-08-19T09:58:10;12.35;;;6.00;;
40981;SDS011;26708;50.304;19.028;2022-08-19T10:01:22;12.63;;;5.38;;
40981;SDS011;26708;50.304;19.028;2022-08-19T10:04:24;10.63;;;5.20;;
40981;SDS011;26708;50.304;19.028;2022-08-19T10:07:45;13.55;;;5.50;;
40981;SDS011;26708;50.304;19.028;2022-08-19T10:10:47;9.98;;;5.18;;
40981;SDS011;26708;50.304;19.028;2022-08-19T10:13:50;10.93;;;4.97;;
40981;SDS011;26708;50.304;19.028;2022-08-19T10:16:51;10.75;;;5.05;;
40981;SDS011;26708;50.304;19.028;2022-08-19T10:19:52;11.63;;;5.53;;
40981;SDS011;26708;50.304;19.028;2022-08-19T10:22:56;12.10;;;5.22;;
40981;SDS011;26708;50.304;19.028;2022-08-19T10:25:59;17.05;;;6.47;;
40981;SDS011;26708;50.304;19.028;2022-08-19T10:29:00;18.38;;;5.72;;
40981;SDS011;26708;50.304;19.028;2022-08-19T10:32:03;8.75;;;5.05;;
40981;SDS011;26708;50.304;19.028;2022-08-19T10:35:08;8.18;;;4.80;;
40981;SDS011;26708;50.304;19.028;2022-08-19T10:38:09;8.90;;;4.95;;
40981;SDS011;26708;50.304;19.028;2022-08-19T10:41:11;12.65;;;5.55;;
40981;SDS011;26708;50.304;19.028;2022-08-19T10:44:17;11.70;;;4.80;;
40981;SDS011;26708;50.304;19.028;2022-08-19T10:47:18;7.20;;;4.68;;
40981;SDS011;26708;50.304;19.028;2022-08-19T10:50:19;7.07;;;4.85;;
40981;SDS011;26708;50.304;19.028;2022-08-19T10:53:42;5.82;;;4.60;;
40981;SDS011;26708;50.304;19.028;2022-08-19T10:56:44;12.93;;;5.30;;
40981;SDS011;26708;50.304;19.028;2022-08-19T10:59:55;9.85;;;4.97;;
40981;SDS011;26708;50.304;19.028;2022-08-19T11:02:57;10.27;;;4.93;;
40981;SDS011;26708;50.304;19.028;2022-08-19T11:05:59;13.13;;;5.00;;
40981;SDS011;26708;50.304;19.028;2022-08-19T11:09:02;9.02;;;4.60;;
40981;SDS011;26708;50.304;19.028;2022-08-19T11:12:03;10.23;;;5.53;;
40981;SDS011;26708;50.304;19.028;2022-08-19T11:15:05;13.65;;;4.95;;
40981;SDS011;26708;50.304;19.028;2022-08-19T11:18:08;9.32;;;5.22;;
40981;SDS011;26708;50.304;19.028;2022-08-19T11:21:11;9.07;;;5.03;;
40981;SDS011;26708;50.304;19.028;2022-08-19T11:24:20;8.35;;;5.45;;
40981;SDS011;26708;50.304;19.028;2022-08-19T11:27:23;11.70;;;5.40;;
40981;SDS011;26708;50.304;19.028;2022-08-19T11:30:23;9.35;;;4.80;;
40981;SDS011;26708;50.304;19.028;2022-08-19T11:33:24;19.73;;;5.60;;
40981;SDS011;26708;50.304;19.028;2022-08-19T11:36:26;11.60;;;5.03;;
40981;SDS011;26708;50.304;19.028;2022-08-19T11:39:33;10.75;;;4.72;;
40981;SDS011;26708;50.304;19.028;2022-08-19T11:42:35;11.18;;;4.38;;
40981;SDS011;26708;50.304;19.028;2022-08-19T11:45:55;14.18;;;4.40;;
40981;SDS011;26708;50.304;19.028;2022-08-19T11:48:56;8.23;;;4.38;;
40981;SDS011;26708;50.304;19.028;2022-08-19T11:51:59;14.38;;;5.10;;
40981;SDS011;26708;50.304;19.028;2022-08-19T11:54:59;10.10;;;4.43;;
40981;SDS011;26708;50.304;19.028;2022-08-19T11:58:00;12.43;;;4.55;;
40981;SDS011;26708;50.304;19.028;2022-08-19T12:01:04;9.00;;;4.60;;
40981;SDS011;26708;50.304;19.028;2022-08-19T12:04:07;8.57;;;4.32;;
40981;SDS011;26708;50.304;19.028;2022-08-19T12:07:07;12.05;;;3.40;;
40981;SDS011;26708;50.304;19.028;2022-08-19T12:10:08;11.18;;;4.13;;
40981;SDS011;26708;50.304;19.028;2022-08-19T12:13:09;13.52;;;4.43;;
40981;SDS011;26708;50.304;19.028;2022-08-19T12:16:18;9.10;;;4.38;;
40981;SDS011;26708;50.304;19.028;2022-08-19T12:19:23;7.90;;;4.15;;
40981;SDS011;26708;50.304;19.028;2022-08-19T12:22:25;9.73;;;4.40;;
40981;SDS011;26708;50.304;19.028;2022-08-19T12:25:25;8.18;;;4.95;;
40981;SDS011;26708;50.304;19.028;2022-08-19T12:28:26;10.80;;;4.72;;
40981;SDS011;26708;50.304;19.028;2022-08-19T12:31:37;11.48;;;5.50;;
40981;SDS011;26708;50.304;19.028;2022-08-19T12:34:38;17.90;;;6.15;;
40981;SDS011;26708;50.304;19.028;2022-08-19T12:37:40;7.60;;;4.15;;
40981;SDS011;26708;50.304;19.028;2022-08-19T12:40:45;9.57;;;4.22;;
40981;SDS011;26708;50.304;19.028;2022-08-19T12:46:49;8.95;;;3.97;;
40981;SDS011;26708;50.304;19.028;2022-08-19T12:49:50;9.10;;;4.43;;
40981;SDS011;26708;50.304;19.028;2022-08-19T12:52:52;8.65;;;4.00;;
40981;SDS011;26708;50.304;19.028;2022-08-19T12:55:56;13.07;;;4.30;;
40981;SDS011;26708;50.304;19.028;2022-08-19T12:59:01;10.40;;;3.90;;
40981;SDS011;26708;50.304;19.028;2022-08-19T13:02:03;12.07;;;4.13;;
40981;SDS011;26708;50.304;19.028;2022-08-19T13:05:07;10.50;;;4.38;;
40981;SDS011;26708;50.304;19.028;2022-08-19T13:08:11;12.73;;;4.35;;
40981;SDS011;26708;50.304;19.028;2022-08-19T13:11:13;9.02;;;4.45;;
40981;SDS011;26708;50.304;19.028;2022-08-19T13:14:15;9.77;;;4.45;;
40981;SDS011;26708;50.304;19.028;2022-08-19T13:17:16;10.82;;;4.85;;
40981;SDS011;26708;50.304;19.028;2022-08-19T13:20:18;10.07;;;4.10;;
40981;SDS011;26708;50.304;19.028;2022-08-19T13:23:20;7.28;;;3.45;;
40981;SDS011;26708;50.304;19.028;2022-08-19T13:26:21;14.98;;;4.78;;
40981;SDS011;26708;50.304;19.028;2022-08-19T13:29:22;7.50;;;3.95;;
40981;SDS011;26708;50.304;19.028;2022-08-19T13:32:41;13.80;;;4.55;;
40981;SDS011;26708;50.304;19.028;2022-08-19T13:36:00;9.20;;;3.70;;
40981;SDS011;26708;50.304;19.028;2022-08-19T13:39:03;10.68;;;3.97;;
40981;SDS011;26708;50.304;19.028;2022-08-19T13:42:05;9.48;;;4.22;;
40981;SDS011;26708;50.304;19.028;2022-08-19T13:45:06;14.35;;;4.38;;
40981;SDS011;26708;50.304;19.028;2022-08-19T13:48:08;13.65;;;3.97;;
40981;SDS011;26708;50.304;19.028;2022-08-19T13:51:09;12.93;;;4.70;;
40981;SDS011;26708;50.304;19.028;2022-08-19T13:54:10;9.55;;;3.90;;
40981;SDS011;26708;50.304;19.028;2022-08-19T13:57:12;8.15;;;3.85;;
40981;SDS011;26708;50.304;19.028;2022-08-19T14:00:14;16.20;;;4.15;;
40981;SDS011;26708;50.304;19.028;2022-08-19T14:03:18;10.80;;;3.97;;
40981;SDS011;26708;50.304;19.028;2022-08-19T14:06:19;18.23;;;4.57;;
40981;SDS011;26708;50.304;19.028;2022-08-19T14:09:20;10.85;;;4.40;;
40981;SDS011;26708;50.304;19.028;2022-08-19T14:12:21;12.05;;;4.35;;
40981;SDS011;26708;50.304;19.028;2022-08-19T14:15:22;9.23;;;3.97;;
40981;SDS011;26708;50.304;19.028;2022-08-19T14:18:23;9.30;;;4.18;;
40981;SDS011;26708;50.304;19.028;2022-08-19T14:21:25;8.93;;;4.10;;
40981;SDS011;26708;50.304;19.028;2022-08-19T14:24:26;12.90;;;3.75;;
40981;SDS011;26708;50.304;19.028;2022-08-19T14:27:27;12.27;;;3.88;;
40981;SDS011;26708;50.304;19.028;2022-08-19T14:30:29;13.50;;;4.18;;
40981;SDS011;26708;50.304;19.028;2022-08-19T14:33:31;11.32;;;4.13;;
40981;SDS011;26708;50.304;19.028;2022-08-19T14:36:32;12.00;;;4.18;;
40981;SDS011;26708;50.304;19.028;2022-08-19T14:39:35;6.13;;;4.40;;
40981;SDS011;26708;50.304;19.028;2022-08-19T14:42:36;13.43;;;3.75;;
40981;SDS011;26708;50.304;19.028;2022-08-19T14:45:37;11.18;;;4.00;;
40981;SDS011;26708;50.304;19.028;2022-08-19T14:48:39;13.63;;;4.20;;
40981;SDS011;26708;50.304;19.028;2022-08-19T14:51:40;8.57;;;3.60;;
40981;SDS011;26708;50.304;19.028;2022-08-19T14:54:41;8.88;;;4.00;;
40981;SDS011;26708;50.304;19.028;2022-08-19T14:57:41;12.40;;;4.93;;
40981;SDS011;26708;50.304;19.028;2022-08-19T15:00:43;10.30;;;3.60;;
40981;SDS011;26708;50.304;19.028;2022-08-19T15:03:44;10.95;;;3.97;;
40981;SDS011;26708;50.304;19.028;2022-08-19T15:06:44;10.95;;;3.72;;
40981;SDS011;26708;50.304;19.028;2022-08-19T15:09:45;11.20;;;4.55;;
40981;SDS011;26708;50.304;19.028;2022-08-19T15:15:50;14.77;;;4.00;;
40981;SDS011;26708;50.304;19.028;2022-08-19T15:18:53;12.40;;;3.83;;
40981;SDS011;26708;50.304;19.028;2022-08-19T15:21:56;22.10;;;4.13;;
40981;SDS011;26708;50.304;19.028;2022-08-19T15:24:57;10.70;;;3.85;;
40981;SDS011;26708;50.304;19.028;2022-08-19T15:27:58;13.75;;;4.28;;
40981;SDS011;26708;50.304;19.028;2022-08-19T15:31:00;11.45;;;3.65;;
40981;SDS011;26708;50.304;19.028;2022-08-19T15:34:02;12.20;;;4.25;;
40981;SDS011;26708;50.304;19.028;2022-08-19T15:37:06;8.10;;;3.78;;
40981;SDS011;26708;50.304;19.028;2022-08-19T15:40:07;10.93;;;4.63;;
40981;SDS011;26708;50.304;19.028;2022-08-19T15:43:08;15.27;;;4.32;;
40981;SDS011;26708;50.304;19.028;2022-08-19T15:46:10;14.02;;;4.30;;
40981;SDS011;26708;50.304;19.028;2022-08-19T15:49:11;12.55;;;4.50;;
40981;SDS011;26708;50.304;19.028;2022-08-19T15:52:13;9.02;;;4.13;;
40981;SDS011;26708;50.304;19.028;2022-08-19T15:55:14;10.48;;;4.60;;
40981;SDS011;26708;50.304;19.028;2022-08-19T15:58:14;8.25;;;4.28;;
40981;SDS011;26708;50.304;19.028;2022-08-19T16:01:34;18.73;;;4.50;;
40981;SDS011;26708;50.304;19.028;2022-08-19T16:04:53;14.15;;;4.32;;
40981;SDS011;26708;50.304;19.028;2022-08-19T16:08:12;15.85;;;4.60;;
40981;SDS011;26708;50.304;19.028;2022-08-19T16:11:18;17.40;;;5.30;;
40981;SDS011;26708;50.304;19.028;2022-08-19T16:14:22;9.88;;;4.38;;
40981;SDS011;26708;50.304;19.028;2022-08-19T16:17:23;16.63;;;5.32;;
40981;SDS011;26708;50.304;19.028;2022-08-19T16:20:25;17.90;;;6.25;;
40981;SDS011;26708;50.304;19.028;2022-08-19T16:23:28;10.82;;;5.15;;
40981;SDS011;26708;50.304;19.028;2022-08-19T16:26:28;10.05;;;5.07;;
40981;SDS011;26708;50.304;19.028;2022-08-19T16:29:30;11.52;;;5.20;;
40981;SDS011;26708;50.304;19.028;2022-08-19T16:32:33;10.30;;;5.18;;
40981;SDS011;26708;50.304;19.028;2022-08-19T16:35:35;11.02;;;5.78;;
40981;SDS011;26708;50.304;19.028;2022-08-19T16:38:36;9.05;;;5.60;;
40981;SDS011;26708;50.304;19.028;2022-08-19T16:41:37;12.45;;;5.63;;
40981;SDS011;26708;50.304;19.028;2022-08-19T16:44:40;11.02;;;5.05;;
40981;SDS011;26708;50.304;19.028;2022-08-19T16:47:46;11.73;;;4.78;;
40981;SDS011;26708;50.304;19.028;2022-08-19T16:50:47;12.57;;;5.15;;
40981;SDS011;26708;50.304;19.028;2022-08-19T16:53:49;13.55;;;5.13;;
40981;SDS011;26708;50.304;19.028;2022-08-19T16:56:53;15.32;;;5.20;;
40981;SDS011;26708;50.304;19.028;2022-08-19T16:59:55;13.32;;;5.30;;
40981;SDS011;26708;50.304;19.028;2022-08-19T17:02:56;9.80;;;5.30;;
40981;SDS011;26708;50.304;19.028;2022-08-19T17:05:57;19.10;;;5.72;;
40981;SDS011;26708;50.304;19.028;2022-08-19T17:09:05;15.15;;;5.47;;
40981;SDS011;26708;50.304;19.028;2022-08-19T17:12:06;15.10;;;6.00;;
40981;SDS011;26708;50.304;19.028;2022-08-19T17:15:07;13.82;;;6.25;;
40981;SDS011;26708;50.304;19.028;2022-08-19T17:18:09;12.50;;;5.70;;
40981;SDS011;26708;50.304;19.028;2022-08-19T17:24:13;13.80;;;6.40;;
40981;SDS011;26708;50.304;19.028;2022-08-19T17:27:14;14.40;;;6.53;;
40981;SDS011;26708;50.304;19.028;2022-08-19T17:30:15;17.20;;;7.00;;
40981;SDS011;26708;50.304;19.028;2022-08-19T17:33:16;16.00;;;7.30;;
40981;SDS011;26708;50.304;19.028;2022-08-19T17:36:18;15.27;;;6.65;;
40981;SDS011;26708;50.304;19.028;2022-08-19T17:39:22;16.38;;;6.45;;
40981;SDS011;26708;50.304;19.028;2022-08-19T17:42:24;26.33;;;7.32;;
40981;SDS011;26708;50.304;19.028;2022-08-19T17:45:26;35.50;;;6.78;;
40981;SDS011;26708;50.304;19.028;2022-08-19T17:48:31;20.75;;;4.88;;
40981;SDS011;26708;50.304;19.028;2022-08-19T17:51:39;20.38;;;5.20;;
40981;SDS011;26708;50.304;19.028;2022-08-19T17:54:44;21.65;;;5.30;;
40981;SDS011;26708;50.304;19.028;2022-08-19T17:57:45;21.60;;;5.50;;
40981;SDS011;26708;50.304;19.028;2022-08-19T18:00:46;15.65;;;5.00;;
40981;SDS011;26708;50.304;19.028;2022-08-19T18:03:48;12.25;;;3.92;;
40981;SDS011;26708;50.304;19.028;2022-08-19T18:06:49;12.88;;;3.78;;
40981;SDS011;26708;50.304;19.028;2022-08-19T18:09:50;11.20;;;3.83;;
40981;SDS011;26708;50.304;19.028;2022-08-19T18:12:52;11.73;;;4.10;;